createdAt,value
2024-02-19T00:04:40.257Z,12.5
2024-02-19T00:10:24.178Z,12.2
2024-02-19T00:16:08.438Z,14.4
2024-02-19T00:21:52.379Z,12.3
2024-02-19T00:27:36.414Z,11.4
2024-02-19T00:33:21.416Z,14.2
2024-02-19T00:39:05.025Z,14
2024-02-19T00:44:51.742Z,14.3
2024-02-19T00:50:35.502Z,14.4
2024-02-19T00:56:19.270Z,13.6
2024-02-19T01:02:03.567Z,13.2
2024-02-19T01:07:47.227Z,15.4
2024-02-19T01:13:30.866Z,13.9
2024-02-19T01:19:15.297Z,11.5
2024-02-19T01:24:59.392Z,12.7
2024-02-19T01:30:43.210Z,12.5
2024-02-19T01:36:26.772Z,14.3
2024-02-19T01:42:10.494Z,14.2
2024-02-19T01:47:55.426Z,11.9
2024-02-19T01:53:39.619Z,11.5
2024-02-19T01:59:25.213Z,14.5
2024-02-19T02:05:09.855Z,13.1
2024-02-19T02:10:53.832Z,12.1
2024-02-19T02:16:37.740Z,12.9
2024-02-19T02:22:21.724Z,13.7
2024-02-19T02:28:05.716Z,13.1
2024-02-19T02:33:50.544Z,11.6
2024-02-19T02:39:35.126Z,11.9
2024-02-19T02:45:19.254Z,12.9
2024-02-19T02:51:03.024Z,12.2
2024-02-19T02:56:46.896Z,9
2024-02-19T03:02:31.611Z,11.6
2024-02-19T03:08:16.334Z,13.3
2024-02-19T03:14:00.063Z,13.4
2024-02-19T03:19:43.938Z,12.5
2024-02-19T03:25:28.043Z,13.4
2024-02-19T03:31:11.999Z,14.5
2024-02-19T03:36:56.938Z,14.7
2024-02-19T03:42:41.106Z,12.7
2024-02-19T03:48:25.162Z,13.4
2024-02-19T03:54:09.046Z,14.4
2024-02-19T03:59:53.117Z,13.5
2024-02-19T04:05:37.086Z,12.5
2024-02-19T04:11:22.291Z,13
2024-02-19T04:17:09.470Z,14.1
2024-02-19T04:22:54.280Z,14
2024-02-19T04:28:37.877Z,15.7
2024-02-19T04:34:22.338Z,15.1
2024-02-19T04:40:06.457Z,15.3
2024-02-19T04:45:50.493Z,16.6
2024-02-19T04:51:34.176Z,17.3
2024-02-19T04:57:17.654Z,19.1
2024-02-19T05:03:01.360Z,18.6
2024-02-19T05:08:45.031Z,16.5
2024-02-19T05:14:29.673Z,17.1
2024-02-19T05:20:14.385Z,19.6
2024-02-19T05:25:58.087Z,18.8
2024-02-19T05:31:42.474Z,18.8
2024-02-19T05:37:26.632Z,17.8
2024-02-19T05:43:10.964Z,17.1
2024-02-19T05:48:55.493Z,16.9
2024-02-19T05:54:39.463Z,40.4
2024-02-19T06:00:23.745Z,35.4
2024-02-19T06:06:08.016Z,30.7
2024-02-19T06:11:51.790Z,31.4
2024-02-19T06:17:36.357Z,28.4
2024-02-19T06:23:19.959Z,26.6
2024-02-19T06:29:03.710Z,28.9
2024-02-19T06:34:49.593Z,24.8
2024-02-19T06:40:33.911Z,22.4
2024-02-19T06:46:20.031Z,25.6
2024-02-19T06:52:04.436Z,28.3
2024-02-19T06:57:48.650Z,23.4
2024-02-19T07:03:32.476Z,24.4
2024-02-19T07:09:16.507Z,26.3
2024-02-19T07:15:01.168Z,23.4
2024-02-19T07:20:44.851Z,22.2
2024-02-19T07:26:28.950Z,20
2024-02-19T07:32:12.987Z,24.8
2024-02-19T07:37:58.796Z,23.8
2024-02-19T07:43:43.861Z,20.6
2024-02-19T07:49:28.029Z,20.3
2024-02-19T07:55:14.512Z,19.2
2024-02-19T08:00:59.437Z,19.3
2024-02-19T08:06:44.657Z,17.6
2024-02-19T08:12:29.312Z,19.5
2024-02-19T08:18:13.887Z,17.9
2024-02-19T08:23:58.849Z,15.9
2024-02-19T08:29:43.702Z,14.9
2024-02-19T08:35:28.108Z,14.9
2024-02-19T08:41:11.985Z,16.3
2024-02-19T08:46:55.619Z,13.9
2024-02-19T08:52:39.441Z,13.8
2024-02-19T08:58:23.580Z,15.4
2024-02-19T09:04:07.840Z,16.3
2024-02-19T09:09:52.034Z,13
2024-02-19T09:15:35.606Z,14.4
2024-02-19T09:21:21.953Z,11.8
2024-02-19T09:27:06.082Z,13.4
2024-02-19T09:32:52.161Z,13.3
2024-02-19T09:38:35.825Z,13.7
2024-02-19T09:44:19.883Z,14.1
2024-02-19T09:50:05.837Z,15.9
2024-02-19T09:55:50.011Z,10.7
2024-02-19T10:01:34.270Z,10.9
2024-02-19T10:07:20.637Z,13
2024-02-19T10:13:04.768Z,10.4
2024-02-19T10:18:50.262Z,14.5
2024-02-19T10:24:34.332Z,12.2
2024-02-19T10:30:19.177Z,15.7
2024-02-19T10:36:03.127Z,12
2024-02-19T10:41:48.220Z,14.5
2024-02-19T10:47:31.997Z,14.1
2024-02-19T10:53:15.779Z,14.1
2024-02-19T10:59:03.378Z,13.6
2024-02-19T11:04:53.199Z,10.9
2024-02-19T11:10:47.101Z,12.5
2024-02-19T11:16:31.542Z,16.2
2024-02-19T11:22:16.157Z,12.7
2024-02-19T11:28:00.273Z,14.7
2024-02-19T11:33:44.429Z,12.3
2024-02-19T11:39:28.168Z,11.1
2024-02-19T11:45:13.018Z,10.2
2024-02-19T11:50:57.503Z,13.2
2024-02-19T11:56:48.790Z,10.4
2024-02-19T12:02:32.637Z,10.4
2024-02-19T12:08:17.599Z,10.5
2024-02-19T12:14:01.392Z,8.2
2024-02-19T12:19:45.446Z,10.5
2024-02-19T12:25:29.911Z,8.6
2024-02-19T12:31:13.730Z,7
2024-02-19T12:36:57.914Z,8.4
2024-02-19T12:42:41.671Z,6.7
2024-02-19T12:48:25.865Z,7.2
2024-02-19T12:54:09.772Z,8.4
2024-02-19T12:59:54.635Z,8.5
2024-02-19T13:05:38.620Z,6.2
2024-02-19T13:11:22.595Z,6.4
2024-02-19T13:17:20.935Z,6.4
2024-02-19T13:23:08.604Z,4.1
2024-02-19T13:28:52.367Z,5.4
2024-02-19T13:34:38.546Z,6.2
2024-02-19T13:40:24.733Z,5.6
2024-02-19T13:46:10.069Z,4.1
2024-02-19T13:51:54.417Z,5.3
2024-02-19T13:57:38.247Z,4.9
2024-02-19T14:03:22.285Z,5.8
2024-02-19T14:09:06.236Z,5.1
2024-02-19T14:14:49.846Z,5.5
2024-02-19T14:20:38.080Z,6.3
2024-02-19T14:26:22.912Z,4.4
2024-02-19T14:32:06.497Z,4.4
2024-02-19T14:37:50.432Z,7.2
2024-02-19T14:43:34.419Z,8
2024-02-19T14:49:18.778Z,8.1
2024-02-19T14:55:02.858Z,4.7
2024-02-19T15:00:46.991Z,8
2024-02-19T15:06:31.082Z,6.1
2024-02-19T15:12:15.345Z,6.1
2024-02-19T15:18:02.724Z,8.7
2024-02-19T15:23:46.571Z,7.2
2024-02-19T15:29:32.373Z,7.9
2024-02-19T15:35:17.133Z,8.4
2024-02-19T15:41:00.887Z,7
2024-02-19T15:46:44.710Z,7.3
2024-02-19T15:52:31.004Z,6.8
2024-02-19T15:58:15.403Z,7.1
2024-02-19T16:03:59.198Z,9.1
2024-02-19T16:09:43.281Z,9.8
2024-02-19T16:15:26.811Z,7.4
2024-02-19T16:21:10.477Z,8.5
2024-02-19T16:26:56.177Z,10.9
2024-02-19T16:32:40.355Z,7.4
2024-02-19T16:38:24.218Z,9.3
2024-02-19T16:44:07.981Z,9.6
2024-02-19T16:49:52.201Z,6.2
2024-02-19T16:55:36.178Z,7.8
2024-02-19T17:01:20.888Z,6.4
2024-02-19T17:07:10.661Z,7.7
2024-02-19T17:12:55.630Z,9.2
2024-02-19T17:18:40.032Z,7
2024-02-19T17:24:25.225Z,6.6
2024-02-19T17:30:09.289Z,8.3
2024-02-19T17:35:53.127Z,6.7
2024-02-19T17:41:36.964Z,6.8
2024-02-19T17:47:20.780Z,9
2024-02-19T17:53:05.661Z,7.9
2024-02-19T17:58:49.258Z,7.9
2024-02-19T18:04:33.146Z,7.9
2024-02-19T18:10:17.504Z,7.1
2024-02-19T18:16:01.334Z,9.1
2024-02-19T18:21:48.370Z,9.1
2024-02-19T18:27:32.094Z,9.5
2024-02-19T18:33:15.866Z,10.2
2024-02-19T18:38:59.641Z,10.8
2024-02-19T18:44:43.250Z,10.6
2024-02-19T18:50:27.028Z,10.6
2024-02-19T18:56:10.747Z,9.5
2024-02-19T19:01:54.843Z,9.9
2024-02-19T19:07:39.077Z,10.2
2024-02-19T19:13:24.338Z,10.8
2024-02-19T19:19:08.666Z,11.8
2024-02-19T19:24:52.498Z,10.6
2024-02-19T19:30:36.349Z,10.5
2024-02-19T19:36:20.046Z,11.3
2024-02-19T19:42:07.011Z,12.3
2024-02-19T19:47:50.827Z,11.3
2024-02-19T19:53:35.572Z,9.9
2024-02-19T19:59:19.365Z,9.7
2024-02-19T20:05:03.855Z,9.7
2024-02-19T20:10:48.344Z,12.5
2024-02-19T20:16:32.607Z,10.3
2024-02-19T20:22:16.607Z,10.5
2024-02-19T20:28:00.498Z,11.2
2024-02-19T20:33:44.497Z,11.2
2024-02-19T20:39:28.417Z,11
2024-02-19T20:45:15.424Z,11.3
2024-02-19T20:51:00.222Z,11.3
2024-02-19T20:56:44.537Z,12
2024-02-19T21:02:28.358Z,11.6
2024-02-19T21:08:15.006Z,11.1
2024-02-19T21:13:58.692Z,13.2
2024-02-19T21:19:42.895Z,9.1
2024-02-19T21:25:26.861Z,10
2024-02-19T21:31:10.785Z,11.9
2024-02-19T21:36:54.726Z,10.1
2024-02-19T21:42:41.900Z,11.5
2024-02-19T21:48:26.233Z,12.3
2024-02-19T21:54:10.069Z,12.2
2024-02-19T21:59:53.839Z,12.4
2024-02-19T22:05:37.955Z,15.5
2024-02-19T22:11:22.286Z,12.5
2024-02-19T22:17:06.223Z,13.6
2024-02-19T22:22:50.112Z,13.7
2024-02-19T22:28:34.423Z,14.8
2024-02-19T22:34:18.801Z,14.7
2024-02-19T22:40:02.666Z,16
2024-02-19T22:45:46.580Z,15.2
2024-02-19T22:51:30.555Z,16.1
2024-02-19T22:57:14.207Z,15.9
2024-02-19T23:02:59.270Z,16.6
2024-02-19T23:08:43.058Z,18.2
2024-02-19T23:14:26.740Z,18.5
2024-02-19T23:20:11.536Z,19.1
2024-02-19T23:25:56.812Z,19.6
2024-02-19T23:31:41.254Z,19.5
2024-02-19T23:37:25.432Z,18.9
2024-02-19T23:43:09.671Z,20.6
2024-02-19T23:48:53.966Z,20.9
2024-02-19T23:54:37.738Z,21.4
